sensor_id;sensor_type;location;lat;lon;timestamp;P1;durP1;ratioP1;P2;durP2;ratioP2
43801;SDS011;29429;51.074;13.764;2023-04-10T00:00:35;33.63;;;20.88;;
43801;SDS011;29429;51.074;13.764;2023-04-10T00:03:03;30.70;;;19.70;;
43801;SDS011;29429;51.074;13.764;2023-04-10T00:05:31;36.30;;;22.42;;
43801;SDS011;29429;51.074;13.764;2023-04-10T00:07:59;38.08;;;23.75;;
43801;SDS011;29429;51.074;13.764;2023-04-10T00:10:26;36.65;;;21.52;;
43801;SDS011;29429;51.074;13.764;2023-04-10T00:12:56;33.03;;;21.65;;
43801;SDS011;29429;51.074;13.764;2023-04-10T00:15:26;35.72;;;22.10;;
43801;SDS011;29429;51.074;13.764;2023-04-10T00:17:54;37.17;;;22.95;;
43801;SDS011;29429;51.074;13.764;2023-04-10T00:20:21;34.80;;;22.40;;
43801;SDS011;29429;51.074;13.764;2023-04-10T00:22:51;34.92;;;22.05;;
43801;SDS011;29429;51.074;13.764;2023-04-10T00:25:19;32.47;;;19.98;;
43801;SDS011;29429;51.074;13.764;2023-04-10T00:27:48;38.17;;;24.05;;
43801;SDS011;29429;51.074;13.764;2023-04-10T00:30:15;34.35;;;22.38;;
43801;SDS011;29429;51.074;13.764;2023-04-10T00:32:43;42.42;;;24.60;;
43801;SDS011;29429;51.074;13.764;2023-04-10T00:35:10;39.92;;;24.75;;
43801;SDS011;29429;51.074;13.764;2023-04-10T00:37:38;38.00;;;23.88;;
43801;SDS011;29429;51.074;13.764;2023-04-10T00:40:06;39.33;;;23.83;;
43801;SDS011;29429;51.074;13.764;2023-04-10T00:42:38;39.03;;;23.58;;
43801;SDS011;29429;51.074;13.764;2023-04-10T00:45:05;39.05;;;24.38;;
43801;SDS011;29429;51.074;13.764;2023-04-10T00:47:33;41.90;;;24.70;;
43801;SDS011;29429;51.074;13.764;2023-04-10T00:50:03;40.50;;;25.48;;
43801;SDS011;29429;51.074;13.764;2023-04-10T00:52:31;35.78;;;22.75;;
43801;SDS011;29429;51.074;13.764;2023-04-10T00:54:59;37.53;;;23.30;;
43801;SDS011;29429;51.074;13.764;2023-04-10T00:57:27;39.63;;;23.98;;
43801;SDS011;29429;51.074;13.764;2023-04-10T00:59:54;39.80;;;25.58;;
43801;SDS011;29429;51.074;13.764;2023-04-10T01:02:22;36.85;;;24.42;;
43801;SDS011;29429;51.074;13.764;2023-04-10T01:04:50;42.10;;;25.30;;
43801;SDS011;29429;51.074;13.764;2023-04-10T01:07:37;45.85;;;27.33;;
43801;SDS011;29429;51.074;13.764;2023-04-10T01:15:50;36.50;;;23.25;;
43801;SDS011;29429;51.074;13.764;2023-04-10T01:18:23;38.22;;;23.13;;
43801;SDS011;29429;51.074;13.764;2023-04-10T01:21:10;36.75;;;22.00;;
43801;SDS011;29429;51.074;13.764;2023-04-10T01:23:42;38.13;;;23.08;;
43801;SDS011;29429;51.074;13.764;2023-04-10T01:29:34;41.35;;;24.25;;
43801;SDS011;29429;51.074;13.764;2023-04-10T01:32:10;43.55;;;25.65;;
43801;SDS011;29429;51.074;13.764;2023-04-10T01:34:48;40.60;;;24.70;;
43801;SDS011;29429;51.074;13.764;2023-04-10T01:37:21;40.25;;;24.77;;
43801;SDS011;29429;51.074;13.764;2023-04-10T01:40:01;38.72;;;23.67;;
43801;SDS011;29429;51.074;13.764;2023-04-10T01:42:38;41.80;;;24.38;;
43801;SDS011;29429;51.074;13.764;2023-04-10T01:45:16;40.28;;;24.50;;
43801;SDS011;29429;51.074;13.764;2023-04-10T01:47:49;46.28;;;25.23;;
43801;SDS011;29429;51.074;13.764;2023-04-10T01:50:17;45.88;;;26.88;;
43801;SDS011;29429;51.074;13.764;2023-04-10T01:52:46;43.10;;;26.00;;
43801;SDS011;29429;51.074;13.764;2023-04-10T01:55:22;43.42;;;25.13;;
43801;SDS011;29429;51.074;13.764;2023-04-10T01:57:56;42.35;;;25.75;;
43801;SDS011;29429;51.074;13.764;2023-04-10T02:00:24;42.92;;;25.63;;
43801;SDS011;29429;51.074;13.764;2023-04-10T02:02:52;47.13;;;26.85;;
43801;SDS011;29429;51.074;13.764;2023-04-10T02:05:20;48.45;;;27.42;;
43801;SDS011;29429;51.074;13.764;2023-04-10T02:10:28;43.75;;;26.05;;
43801;SDS011;29429;51.074;13.764;2023-04-10T02:13:04;45.00;;;25.40;;
43801;SDS011;29429;51.074;13.764;2023-04-10T02:15:33;47.13;;;27.67;;
43801;SDS011;29429;51.074;13.764;2023-04-10T02:18:02;44.67;;;26.40;;
43801;SDS011;29429;51.074;13.764;2023-04-10T02:20:31;43.17;;;26.00;;
43801;SDS011;29429;51.074;13.764;2023-04-10T02:22:59;48.05;;;27.48;;
43801;SDS011;29429;51.074;13.764;2023-04-10T02:25:32;48.33;;;27.48;;
43801;SDS011;29429;51.074;13.764;2023-04-10T02:28:04;43.05;;;24.70;;
43801;SDS011;29429;51.074;13.764;2023-04-10T02:30:32;49.55;;;27.65;;
43801;SDS011;29429;51.074;13.764;2023-04-10T02:33:00;47.60;;;26.90;;
43801;SDS011;29429;51.074;13.764;2023-04-10T02:35:29;47.13;;;27.73;;
43801;SDS011;29429;51.074;13.764;2023-04-10T02:37:57;44.45;;;26.10;;
43801;SDS011;29429;51.074;13.764;2023-04-10T02:40:25;42.85;;;25.30;;
43801;SDS011;29429;51.074;13.764;2023-04-10T02:43:07;43.63;;;26.25;;
43801;SDS011;29429;51.074;13.764;2023-04-10T02:45:35;47.00;;;26.25;;
43801;SDS011;29429;51.074;13.764;2023-04-10T02:48:04;51.58;;;28.85;;
43801;SDS011;29429;51.074;13.764;2023-04-10T02:50:32;48.17;;;27.83;;
43801;SDS011;29429;51.074;13.764;2023-04-10T02:53:00;45.63;;;26.10;;
43801;SDS011;29429;51.074;13.764;2023-04-10T02:55:29;45.47;;;26.08;;
43801;SDS011;29429;51.074;13.764;2023-04-10T02:57:56;41.33;;;24.15;;
43801;SDS011;29429;51.074;13.764;2023-04-10T03:00:24;40.15;;;22.25;;
43801;SDS011;29429;51.074;13.764;2023-04-10T03:03:06;42.25;;;25.67;;
43801;SDS011;29429;51.074;13.764;2023-04-10T03:05:41;43.42;;;26.10;;
43801;SDS011;29429;51.074;13.764;2023-04-10T03:08:12;44.80;;;26.20;;
43801;SDS011;29429;51.074;13.764;2023-04-10T03:10:42;45.47;;;26.27;;
43801;SDS011;29429;51.074;13.764;2023-04-10T03:13:11;44.42;;;26.02;;
43801;SDS011;29429;51.074;13.764;2023-04-10T03:15:39;44.05;;;26.42;;
43801;SDS011;29429;51.074;13.764;2023-04-10T03:18:06;47.60;;;26.80;;
43801;SDS011;29429;51.074;13.764;2023-04-10T03:20:39;43.78;;;25.55;;
43801;SDS011;29429;51.074;13.764;2023-04-10T03:23:09;46.50;;;27.40;;
43801;SDS011;29429;51.074;13.764;2023-04-10T03:25:36;39.50;;;24.52;;
43801;SDS011;29429;51.074;13.764;2023-04-10T03:28:05;45.28;;;26.50;;
43801;SDS011;29429;51.074;13.764;2023-04-10T03:30:33;43.90;;;27.13;;
43801;SDS011;29429;51.074;13.764;2023-04-10T03:33:02;41.33;;;25.48;;
43801;SDS011;29429;51.074;13.764;2023-04-10T03:35:29;41.25;;;25.00;;
43801;SDS011;29429;51.074;13.764;2023-04-10T03:37:58;43.50;;;24.42;;
43801;SDS011;29429;51.074;13.764;2023-04-10T03:40:25;39.60;;;23.65;;
43801;SDS011;29429;51.074;13.764;2023-04-10T03:42:53;39.97;;;24.05;;
43801;SDS011;29429;51.074;13.764;2023-04-10T03:45:21;42.47;;;24.65;;
43801;SDS011;29429;51.074;13.764;2023-04-10T03:47:49;39.15;;;24.10;;
43801;SDS011;29429;51.074;13.764;2023-04-10T03:50:18;37.17;;;22.70;;
43801;SDS011;29429;51.074;13.764;2023-04-10T03:52:53;40.13;;;23.50;;
43801;SDS011;29429;51.074;13.764;2023-04-10T03:55:23;38.28;;;23.35;;
43801;SDS011;29429;51.074;13.764;2023-04-10T03:57:50;39.00;;;23.65;;
43801;SDS011;29429;51.074;13.764;2023-04-10T04:00:23;34.83;;;21.98;;
43801;SDS011;29429;51.074;13.764;2023-04-10T04:03:04;36.50;;;22.30;;
43801;SDS011;29429;51.074;13.764;2023-04-10T04:06:01;34.10;;;22.30;;
43801;SDS011;29429;51.074;13.764;2023-04-10T04:08:42;40.00;;;23.45;;
43801;SDS011;29429;51.074;13.764;2023-04-10T04:11:17;39.30;;;23.25;;
43801;SDS011;29429;51.074;13.764;2023-04-10T04:13:55;37.63;;;22.67;;
43801;SDS011;29429;51.074;13.764;2023-04-10T04:16:44;43.58;;;24.10;;
43801;SDS011;29429;51.074;13.764;2023-04-10T04:19:26;41.33;;;22.92;;
43801;SDS011;29429;51.074;13.764;2023-04-10T04:22:13;36.72;;;22.23;;
43801;SDS011;29429;51.074;13.764;2023-04-10T04:25:00;40.17;;;23.10;;
43801;SDS011;29429;51.074;13.764;2023-04-10T04:27:47;34.88;;;21.38;;
43801;SDS011;29429;51.074;13.764;2023-04-10T04:30:38;36.17;;;21.27;;
43801;SDS011;29429;51.074;13.764;2023-04-10T04:33:32;38.38;;;22.95;;
43801;SDS011;29429;51.074;13.764;2023-04-10T04:36:18;37.40;;;21.88;;
43801;SDS011;29429;51.074;13.764;2023-04-10T04:39:03;36.65;;;22.00;;
43801;SDS011;29429;51.074;13.764;2023-04-10T04:41:51;37.03;;;21.50;;
43801;SDS011;29429;51.074;13.764;2023-04-10T04:44:42;41.22;;;23.08;;
43801;SDS011;29429;51.074;13.764;2023-04-10T04:47:29;36.53;;;22.35;;
43801;SDS011;29429;51.074;13.764;2023-04-10T04:50:07;41.03;;;23.45;;
43801;SDS011;29429;51.074;13.764;2023-04-10T04:53:00;40.20;;;23.40;;
43801;SDS011;29429;51.074;13.764;2023-04-10T04:58:35;40.60;;;23.38;;
43801;SDS011;29429;51.074;13.764;2023-04-10T05:01:25;41.10;;;23.73;;
43801;SDS011;29429;51.074;13.764;2023-04-10T05:04:29;39.20;;;22.52;;
43801;SDS011;29429;51.074;13.764;2023-04-10T05:07:07;39.25;;;22.88;;
43801;SDS011;29429;51.074;13.764;2023-04-10T05:09:53;36.17;;;21.30;;
43801;SDS011;29429;51.074;13.764;2023-04-10T05:12:36;32.72;;;19.85;;
43801;SDS011;29429;51.074;13.764;2023-04-10T05:15:20;33.78;;;21.30;;
43801;SDS011;29429;51.074;13.764;2023-04-10T05:18:23;35.35;;;21.13;;
43801;SDS011;29429;51.074;13.764;2023-04-10T05:21:20;34.00;;;20.52;;
43801;SDS011;29429;51.074;13.764;2023-04-10T05:24:03;36.45;;;21.85;;
43801;SDS011;29429;51.074;13.764;2023-04-10T05:26:45;36.25;;;20.83;;
43801;SDS011;29429;51.074;13.764;2023-04-10T05:29:43;31.73;;;19.10;;
43801;SDS011;29429;51.074;13.764;2023-04-10T05:32:30;31.00;;;19.27;;
43801;SDS011;29429;51.074;13.764;2023-04-10T05:35:17;35.97;;;20.10;;
43801;SDS011;29429;51.074;13.764;2023-04-10T05:37:56;33.97;;;20.73;;
43801;SDS011;29429;51.074;13.764;2023-04-10T05:40:31;38.75;;;21.13;;
43801;SDS011;29429;51.074;13.764;2023-04-10T05:43:20;35.92;;;20.58;;
43801;SDS011;29429;51.074;13.764;2023-04-10T05:45:57;29.30;;;19.35;;
43801;SDS011;29429;51.074;13.764;2023-04-10T05:48:43;30.67;;;18.55;;
43801;SDS011;29429;51.074;13.764;2023-04-10T05:51:19;27.88;;;18.02;;
43801;SDS011;29429;51.074;13.764;2023-04-10T05:54:12;31.05;;;18.63;;
43801;SDS011;29429;51.074;13.764;2023-04-10T05:57:06;36.65;;;21.20;;
43801;SDS011;29429;51.074;13.764;2023-04-10T05:59:58;30.83;;;19.38;;
43801;SDS011;29429;51.074;13.764;2023-04-10T06:03:00;32.33;;;20.15;;
43801;SDS011;29429;51.074;13.764;2023-04-10T06:05:32;36.35;;;22.00;;
43801;SDS011;29429;51.074;13.764;2023-04-10T06:08:03;33.58;;;21.38;;
43801;SDS011;29429;51.074;13.764;2023-04-10T06:10:32;31.90;;;20.25;;
43801;SDS011;29429;51.074;13.764;2023-04-10T06:12:59;29.52;;;19.02;;
43801;SDS011;29429;51.074;13.764;2023-04-10T06:15:27;31.17;;;19.58;;
43801;SDS011;29429;51.074;13.764;2023-04-10T06:17:56;34.15;;;20.73;;
43801;SDS011;29429;51.074;13.764;2023-04-10T06:20:24;32.60;;;20.90;;
43801;SDS011;29429;51.074;13.764;2023-04-10T06:22:52;31.60;;;19.50;;
43801;SDS011;29429;51.074;13.764;2023-04-10T06:25:19;32.58;;;21.27;;
43801;SDS011;29429;51.074;13.764;2023-04-10T06:27:48;30.65;;;20.20;;
43801;SDS011;29429;51.074;13.764;2023-04-10T06:30:15;31.45;;;20.30;;
43801;SDS011;29429;51.074;13.764;2023-04-10T06:32:43;30.35;;;19.63;;
43801;SDS011;29429;51.074;13.764;2023-04-10T06:35:11;33.38;;;20.42;;
43801;SDS011;29429;51.074;13.764;2023-04-10T06:37:39;29.80;;;19.73;;
43801;SDS011;29429;51.074;13.764;2023-04-10T06:40:12;28.45;;;18.98;;
43801;SDS011;29429;51.074;13.764;2023-04-10T06:42:40;29.90;;;19.45;;
43801;SDS011;29429;51.074;13.764;2023-04-10T06:45:13;27.08;;;18.50;;
43801;SDS011;29429;51.074;13.764;2023-04-10T06:47:41;31.13;;;19.35;;
43801;SDS011;29429;51.074;13.764;2023-04-10T06:50:09;28.50;;;18.92;;
43801;SDS011;29429;51.074;13.764;2023-04-10T06:52:36;26.17;;;17.45;;
43801;SDS011;29429;51.074;13.764;2023-04-10T06:55:04;29.15;;;18.88;;
43801;SDS011;29429;51.074;13.764;2023-04-10T06:57:32;31.05;;;19.90;;
43801;SDS011;29429;51.074;13.764;2023-04-10T06:59:59;27.95;;;19.48;;
43801;SDS011;29429;51.074;13.764;2023-04-10T07:02:26;29.70;;;19.30;;
43801;SDS011;29429;51.074;13.764;2023-04-10T07:04:55;28.42;;;19.48;;
43801;SDS011;29429;51.074;13.764;2023-04-10T07:07:23;27.67;;;17.52;;
43801;SDS011;29429;51.074;13.764;2023-04-10T07:09:50;30.00;;;18.75;;
43801;SDS011;29429;51.074;13.764;2023-04-10T07:12:33;28.67;;;19.35;;
43801;SDS011;29429;51.074;13.764;2023-04-10T07:16:11;26.63;;;17.40;;
43801;SDS011;29429;51.074;13.764;2023-04-10T07:18:39;30.35;;;19.02;;
43801;SDS011;29429;51.074;13.764;2023-04-10T07:21:08;24.48;;;16.92;;
43801;SDS011;29429;51.074;13.764;2023-04-10T07:23:37;24.75;;;17.40;;
43801;SDS011;29429;51.074;13.764;2023-04-10T07:26:04;24.88;;;17.10;;
43801;SDS011;29429;51.074;13.764;2023-04-10T07:28:32;27.00;;;17.98;;
43801;SDS011;29429;51.074;13.764;2023-04-10T07:30:59;26.55;;;18.50;;
43801;SDS011;29429;51.074;13.764;2023-04-10T07:33:27;26.35;;;17.52;;
43801;SDS011;29429;51.074;13.764;2023-04-10T07:35:55;27.05;;;18.27;;
43801;SDS011;29429;51.074;13.764;2023-04-10T07:38:24;24.35;;;16.58;;
43801;SDS011;29429;51.074;13.764;2023-04-10T07:40:55;22.42;;;15.63;;
43801;SDS011;29429;51.074;13.764;2023-04-10T07:43:24;25.85;;;18.38;;
43801;SDS011;29429;51.074;13.764;2023-04-10T07:45:52;28.27;;;19.00;;
43801;SDS011;29429;51.074;13.764;2023-04-10T07:48:19;23.10;;;16.05;;
43801;SDS011;29429;51.074;13.764;2023-04-10T07:50:46;21.70;;;15.20;;
43801;SDS011;29429;51.074;13.764;2023-04-10T07:53:14;24.20;;;16.63;;
43801;SDS011;29429;51.074;13.764;2023-04-10T07:55:42;26.13;;;16.98;;
43801;SDS011;29429;51.074;13.764;2023-04-10T07:58:11;25.65;;;17.50;;
43801;SDS011;29429;51.074;13.764;2023-04-10T08:00:38;22.90;;;16.75;;
43801;SDS011;29429;51.074;13.764;2023-04-10T08:03:06;26.25;;;17.70;;
43801;SDS011;29429;51.074;13.764;2023-04-10T08:05:34;24.02;;;17.20;;
43801;SDS011;29429;51.074;13.764;2023-04-10T08:08:01;22.63;;;16.55;;
43801;SDS011;29429;51.074;13.764;2023-04-10T08:10:29;19.75;;;14.73;;
43801;SDS011;29429;51.074;13.764;2023-04-10T08:12:56;23.05;;;15.63;;
43801;SDS011;29429;51.074;13.764;2023-04-10T08:15:24;22.15;;;16.48;;
43801;SDS011;29429;51.074;13.764;2023-04-10T08:17:51;20.73;;;14.73;;
43801;SDS011;29429;51.074;13.764;2023-04-10T08:20:19;20.08;;;14.70;;
43801;SDS011;29429;51.074;13.764;2023-04-10T08:22:49;21.85;;;14.80;;
43801;SDS011;29429;51.074;13.764;2023-04-10T08:25:50;22.27;;;15.32;;
43801;SDS011;29429;51.074;13.764;2023-04-10T08:28:21;21.00;;;14.93;;
43801;SDS011;29429;51.074;13.764;2023-04-10T08:30:48;21.00;;;15.32;;
43801;SDS011;29429;51.074;13.764;2023-04-10T08:33:15;18.50;;;13.90;;
43801;SDS011;29429;51.074;13.764;2023-04-10T08:35:45;23.23;;;15.18;;
43801;SDS011;29429;51.074;13.764;2023-04-10T08:38:14;22.42;;;14.75;;
43801;SDS011;29429;51.074;13.764;2023-04-10T08:40:42;21.33;;;14.52;;
43801;SDS011;29429;51.074;13.764;2023-04-10T08:43:10;20.90;;;13.82;;
43801;SDS011;29429;51.074;13.764;2023-04-10T08:45:39;23.13;;;14.88;;
43801;SDS011;29429;51.074;13.764;2023-04-10T08:48:07;23.45;;;15.40;;
43801;SDS011;29429;51.074;13.764;2023-04-10T08:50:39;22.20;;;15.35;;
43801;SDS011;29429;51.074;13.764;2023-04-10T08:53:13;22.42;;;15.30;;
43801;SDS011;29429;51.074;13.764;2023-04-10T08:55:41;22.65;;;15.35;;
43801;SDS011;29429;51.074;13.764;2023-04-10T08:58:10;27.38;;;17.33;;
43801;SDS011;29429;51.074;13.764;2023-04-10T09:00:41;23.52;;;15.90;;
43801;SDS011;29429;51.074;13.764;2023-04-10T09:03:25;23.20;;;15.57;;
43801;SDS011;29429;51.074;13.764;2023-04-10T09:05:56;22.60;;;15.07;;
43801;SDS011;29429;51.074;13.764;2023-04-10T09:08:30;23.35;;;16.35;;
43801;SDS011;29429;51.074;13.764;2023-04-10T09:10:57;21.10;;;14.63;;
43801;SDS011;29429;51.074;13.764;2023-04-10T09:13:38;22.73;;;14.63;;
43801;SDS011;29429;51.074;13.764;2023-04-10T09:16:07;19.02;;;13.55;;
43801;SDS011;29429;51.074;13.764;2023-04-10T09:18:46;21.98;;;14.68;;
43801;SDS011;29429;51.074;13.764;2023-04-10T09:21:20;22.05;;;14.10;;
43801;SDS011;29429;51.074;13.764;2023-04-10T09:23:48;18.15;;;12.52;;
43801;SDS011;29429;51.074;13.764;2023-04-10T09:26:26;18.67;;;13.10;;
43801;SDS011;29429;51.074;13.764;2023-04-10T09:29:06;18.70;;;12.80;;
43801;SDS011;29429;51.074;13.764;2023-04-10T09:31:36;18.40;;;12.50;;
43801;SDS011;29429;51.074;13.764;2023-04-10T09:34:20;15.52;;;10.73;;
43801;SDS011;29429;51.074;13.764;2023-04-10T09:37:06;15.55;;;11.23;;
43801;SDS011;29429;51.074;13.764;2023-04-10T09:39:38;17.13;;;11.60;;
43801;SDS011;29429;51.074;13.764;2023-04-10T09:42:08;16.00;;;10.68;;
43801;SDS011;29429;51.074;13.764;2023-04-10T09:44:40;13.90;;;9.82;;
43801;SDS011;29429;51.074;13.764;2023-04-10T09:47:14;13.30;;;9.18;;
43801;SDS011;29429;51.074;13.764;2023-04-10T09:49:47;13.55;;;9.45;;
43801;SDS011;29429;51.074;13.764;2023-04-10T09:52:18;12.52;;;8.65;;
43801;SDS011;29429;51.074;13.764;2023-04-10T09:54:48;11.93;;;8.90;;
43801;SDS011;29429;51.074;13.764;2023-04-10T09:57:16;12.60;;;8.80;;
43801;SDS011;29429;51.074;13.764;2023-04-10T09:59:49;10.98;;;8.18;;
43801;SDS011;29429;51.074;13.764;2023-04-10T10:02:22;10.27;;;7.70;;
43801;SDS011;29429;51.074;13.764;2023-04-10T10:04:51;9.02;;;6.60;;
43801;SDS011;29429;51.074;13.764;2023-04-10T10:07:19;14.07;;;9.85;;
43801;SDS011;29429;51.074;13.764;2023-04-10T10:09:50;14.70;;;10.05;;
43801;SDS011;29429;51.074;13.764;2023-04-10T10:12:23;12.27;;;8.77;;
43801;SDS011;29429;51.074;13.764;2023-04-10T10:19:04;15.18;;;10.50;;
43801;SDS011;29429;51.074;13.764;2023-04-10T10:21:25;12.45;;;8.45;;
43801;SDS011;29429;51.074;13.764;2023-04-10T10:23:53;10.30;;;6.63;;
43801;SDS011;29429;51.074;13.764;2023-04-10T10:26:24;13.10;;;7.78;;
43801;SDS011;29429;51.074;13.764;2023-04-10T10:28:56;10.25;;;7.50;;
43801;SDS011;29429;51.074;13.764;2023-04-10T10:31:32;11.38;;;7.72;;
43801;SDS011;29429;51.074;13.764;2023-04-10T10:34:02;11.55;;;8.93;;
43801;SDS011;29429;51.074;13.764;2023-04-10T10:36:32;10.63;;;7.75;;
43801;SDS011;29429;51.074;13.764;2023-04-10T10:39:09;11.30;;;8.57;;
43801;SDS011;29429;51.074;13.764;2023-04-10T10:42:08;12.32;;;8.70;;
43801;SDS011;29429;51.074;13.764;2023-04-10T10:44:46;11.38;;;8.60;;
43801;SDS011;29429;51.074;13.764;2023-04-10T10:47:27;12.85;;;8.93;;
43801;SDS011;29429;51.074;13.764;2023-04-10T10:49:57;12.38;;;9.82;;
43801;SDS011;29429;51.074;13.764;2023-04-10T11:00:21;11.93;;;8.27;;
43801;SDS011;29429;51.074;13.764;2023-04-10T11:11:02;8.88;;;7.20;;
43801;SDS011;29429;51.074;13.764;2023-04-10T11:13:33;10.73;;;8.43;;
43801;SDS011;29429;51.074;13.764;2023-04-10T11:16:03;9.82;;;8.02;;
43801;SDS011;29429;51.074;13.764;2023-04-10T11:21:15;8.77;;;7.07;;
43801;SDS011;29429;51.074;13.764;2023-04-10T11:29:05;10.60;;;8.20;;
43801;SDS011;29429;51.074;13.764;2023-04-10T11:31:45;10.70;;;7.65;;
43801;SDS011;29429;51.074;13.764;2023-04-10T11:34:20;9.80;;;7.78;;
43801;SDS011;29429;51.074;13.764;2023-04-10T11:36:47;10.90;;;7.80;;
43801;SDS011;29429;51.074;13.764;2023-04-10T11:39:15;10.68;;;8.63;;
43801;SDS011;29429;51.074;13.764;2023-04-10T11:41:45;14.02;;;8.55;;
43801;SDS011;29429;51.074;13.764;2023-04-10T11:44:18;11.68;;;9.02;;
43801;SDS011;29429;51.074;13.764;2023-04-10T11:47:00;12.45;;;8.77;;
43801;SDS011;29429;51.074;13.764;2023-04-10T11:49:32;12.52;;;8.65;;
43801;SDS011;29429;51.074;13.764;2023-04-10T11:52:00;13.38;;;9.43;;
43801;SDS011;29429;51.074;13.764;2023-04-10T11:54:28;15.20;;;10.32;;
43801;SDS011;29429;51.074;13.764;2023-04-10T11:57:01;12.18;;;8.48;;
43801;SDS011;29429;51.074;13.764;2023-04-10T11:59:31;13.05;;;9.23;;
43801;SDS011;29429;51.074;13.764;2023-04-10T12:02:06;13.30;;;9.43;;
43801;SDS011;29429;51.074;13.764;2023-04-10T12:04:35;11.20;;;8.23;;
43801;SDS011;29429;51.074;13.764;2023-04-10T12:07:03;12.10;;;8.50;;
43801;SDS011;29429;51.074;13.764;2023-04-10T12:09:30;9.57;;;7.35;;
43801;SDS011;29429;51.074;13.764;2023-04-10T12:11:58;10.40;;;7.88;;
43801;SDS011;29429;51.074;13.764;2023-04-10T12:14:38;11.30;;;8.05;;
43801;SDS011;29429;51.074;13.764;2023-04-10T12:17:07;13.82;;;8.30;;
43801;SDS011;29429;51.074;13.764;2023-04-10T12:19:39;11.07;;;7.97;;
43801;SDS011;29429;51.074;13.764;2023-04-10T12:22:06;10.43;;;7.63;;
43801;SDS011;29429;51.074;13.764;2023-04-10T12:24:40;14.38;;;8.82;;
43801;SDS011;29429;51.074;13.764;2023-04-10T12:29:54;9.73;;;7.90;;
43801;SDS011;29429;51.074;13.764;2023-04-10T12:32:22;11.23;;;8.65;;
43801;SDS011;29429;51.074;13.764;2023-04-10T12:34:51;13.30;;;9.25;;
43801;SDS011;29429;51.074;13.764;2023-04-10T12:37:23;11.82;;;8.10;;
43801;SDS011;29429;51.074;13.764;2023-04-10T12:40:11;11.18;;;8.00;;
43801;SDS011;29429;51.074;13.764;2023-04-10T12:42:40;11.23;;;8.35;;
43801;SDS011;29429;51.074;13.764;2023-04-10T12:45:07;12.52;;;8.63;;
43801;SDS011;29429;51.074;13.764;2023-04-10T12:47:48;10.88;;;8.05;;
43801;SDS011;29429;51.074;13.764;2023-04-10T12:50:19;11.05;;;7.68;;
43801;SDS011;29429;51.074;13.764;2023-04-10T12:53:01;9.32;;;7.25;;
43801;SDS011;29429;51.074;13.764;2023-04-10T12:55:37;8.57;;;6.70;;
43801;SDS011;29429;51.074;13.764;2023-04-10T12:58:14;7.28;;;6.07;;
43801;SDS011;29429;51.074;13.764;2023-04-10T13:00:43;7.43;;;5.95;;
43801;SDS011;29429;51.074;13.764;2023-04-10T13:03:11;7.32;;;5.28;;
43801;SDS011;29429;51.074;13.764;2023-04-10T13:05:38;8.85;;;6.00;;
43801;SDS011;29429;51.074;13.764;2023-04-10T13:08:09;8.93;;;6.32;;
43801;SDS011;29429;51.074;13.764;2023-04-10T13:10:38;7.38;;;6.13;;
43801;SDS011;29429;51.074;13.764;2023-04-10T13:13:08;7.13;;;5.50;;
43801;SDS011;29429;51.074;13.764;2023-04-10T13:15:38;6.63;;;5.20;;
43801;SDS011;29429;51.074;13.764;2023-04-10T13:18:08;9.55;;;5.20;;
43801;SDS011;29429;51.074;13.764;2023-04-10T13:20:39;6.63;;;5.72;;
43801;SDS011;29429;51.074;13.764;2023-04-10T13:27:20;8.63;;;6.10;;
43801;SDS011;29429;51.074;13.764;2023-04-10T13:29:47;7.65;;;6.13;;
43801;SDS011;29429;51.074;13.764;2023-04-10T13:32:15;8.40;;;6.15;;
43801;SDS011;29429;51.074;13.764;2023-04-10T13:34:42;7.75;;;6.38;;
43801;SDS011;29429;51.074;13.764;2023-04-10T13:37:10;7.97;;;5.13;;
43801;SDS011;29429;51.074;13.764;2023-04-10T13:39:38;6.15;;;5.53;;
43801;SDS011;29429;51.074;13.764;2023-04-10T13:42:08;7.15;;;5.15;;
43801;SDS011;29429;51.074;13.764;2023-04-10T13:44:36;6.25;;;5.50;;
43801;SDS011;29429;51.074;13.764;2023-04-10T13:47:03;6.43;;;5.05;;
43801;SDS011;29429;51.074;13.764;2023-04-10T13:49:31;6.10;;;5.10;;
43801;SDS011;29429;51.074;13.764;2023-04-10T13:51:59;6.13;;;5.28;;
43801;SDS011;29429;51.074;13.764;2023-04-10T13:54:26;5.75;;;5.15;;
43801;SDS011;29429;51.074;13.764;2023-04-10T13:56:53;4.90;;;4.40;;
43801;SDS011;29429;51.074;13.764;2023-04-10T13:59:21;5.57;;;4.18;;
43801;SDS011;29429;51.074;13.764;2023-04-10T14:01:49;5.88;;;4.47;;
43801;SDS011;29429;51.074;13.764;2023-04-10T14:04:18;6.05;;;4.43;;
43801;SDS011;29429;51.074;13.764;2023-04-10T14:06:45;6.25;;;4.70;;
43801;SDS011;29429;51.074;13.764;2023-04-10T14:09:15;7.05;;;4.93;;
43801;SDS011;29429;51.074;13.764;2023-04-10T14:11:42;9.02;;;5.28;;
43801;SDS011;29429;51.074;13.764;2023-04-10T14:14:10;6.28;;;4.70;;
43801;SDS011;29429;51.074;13.764;2023-04-10T14:16:39;5.93;;;4.30;;
43801;SDS011;29429;51.074;13.764;2023-04-10T14:19:07;6.32;;;5.05;;
43801;SDS011;29429;51.074;13.764;2023-04-10T14:21:36;5.55;;;4.30;;
43801;SDS011;29429;51.074;13.764;2023-04-10T14:24:06;5.45;;;4.18;;
43801;SDS011;29429;51.074;13.764;2023-04-10T14:34:25;4.82;;;4.20;;
43801;SDS011;29429;51.074;13.764;2023-04-10T14:36:53;4.18;;;3.67;;
43801;SDS011;29429;51.074;13.764;2023-04-10T14:39:22;6.15;;;4.32;;
43801;SDS011;29429;51.074;13.764;2023-04-10T14:41:50;4.20;;;3.63;;
43801;SDS011;29429;51.074;13.764;2023-04-10T14:44:18;4.30;;;3.78;;
43801;SDS011;29429;51.074;13.764;2023-04-10T14:46:45;5.45;;;4.00;;
43801;SDS011;29429;51.074;13.764;2023-04-10T14:49:13;5.97;;;4.10;;
43801;SDS011;29429;51.074;13.764;2023-04-10T14:51:43;4.72;;;3.75;;
43801;SDS011;29429;51.074;13.764;2023-04-10T14:54:13;5.68;;;4.03;;
43801;SDS011;29429;51.074;13.764;2023-04-10T14:59:35;5.43;;;4.43;;
43801;SDS011;29429;51.074;13.764;2023-04-10T15:02:02;4.95;;;3.67;;
43801;SDS011;29429;51.074;13.764;2023-04-10T15:04:30;5.72;;;3.78;;
43801;SDS011;29429;51.074;13.764;2023-04-10T15:06:57;6.20;;;4.75;;
43801;SDS011;29429;51.074;13.764;2023-04-10T15:09:25;5.50;;;4.00;;
43801;SDS011;29429;51.074;13.764;2023-04-10T15:11:52;5.20;;;4.18;;
43801;SDS011;29429;51.074;13.764;2023-04-10T15:14:22;6.05;;;3.72;;
43801;SDS011;29429;51.074;13.764;2023-04-10T15:16:49;6.95;;;4.40;;
43801;SDS011;29429;51.074;13.764;2023-04-10T15:19:19;5.30;;;4.70;;
43801;SDS011;29429;51.074;13.764;2023-04-10T15:21:46;6.72;;;4.75;;
43801;SDS011;29429;51.074;13.764;2023-04-10T15:24:14;6.55;;;5.10;;
43801;SDS011;29429;51.074;13.764;2023-04-10T15:26:42;6.15;;;4.90;;
43801;SDS011;29429;51.074;13.764;2023-04-10T15:29:12;8.38;;;5.05;;
43801;SDS011;29429;51.074;13.764;2023-04-10T15:31:57;5.63;;;4.65;;
43801;SDS011;29429;51.074;13.764;2023-04-10T15:36:21;6.72;;;5.05;;
43801;SDS011;29429;51.074;13.764;2023-04-10T15:40:53;6.60;;;4.95;;
43801;SDS011;29429;51.074;13.764;2023-04-10T15:44:17;7.32;;;5.38;;
43801;SDS011;29429;51.074;13.764;2023-04-10T15:46:45;7.68;;;6.03;;
43801;SDS011;29429;51.074;13.764;2023-04-10T15:49:12;9.50;;;6.07;;
43801;SDS011;29429;51.074;13.764;2023-04-10T15:51:55;7.15;;;5.55;;